Time;durP1;ratioP1;P1;durP2;ratioP2;P2;SDS_P1;SDS_P2;PMS_P1;PMS_P2;Temp;Humidity;BMP_temperature;BMP_pressure;BME280_temperature;BME280_humidity;BME280_pressure;Samples;Min_cycle;Max_cycle;Signal;HPM_P1;HPM_P2
2022/05/07 00:00:00;;;;;;;14.80;10.98;;;;;;;13.93;69.79;102128.69;6220091;24;20099;-83
2022/05/07 00:03:24;;;;;;;;;;;;;;;;;;;;;
2022/05/07 01:08:46;;;;;;;14.30;11.75;;;;;;;12.90;74.04;102094.97;6224130;23;20016;-85
2022/05/07 05:30:26;;;;;;;28.85;25.77;;;;;;;12.86;77.12;102127.22;6498974;23;20028;-85
2022/05/07 06:13:51;;;;;;;29.38;25.52;;;;;;;13.34;75.19;102130.66;6109055;24;20026;-85
2022/05/07 06:50:45;;;;;;;29.63;21.65;;;;;;;14.46;71.13;102157.22;6473923;23;20339;-86
2022/05/07 10:17:43;;;;;;;21.92;18.02;;;;;;;24.75;34.07;102148.31;6432060;23;20026;-87
2022/05/07 10:28:31;;;;;;;;;;;;;;;;;;;;;
2022/05/07 11:01:50;;;;;;;;;;;;;;;;;;;;;
2022/05/07 11:12:41;;;;;;;;;;;;;;;;;;;;;
2022/05/07 13:34:44;;;;;;;14.13;5.40;;;;;;;19.65;46.72;102129.53;6502317;22;20024;-84
2022/05/07 13:37:18;;;;;;;12.90;5.88;;;;;;;19.20;48.23;102135.22;6476390;23;20655;-83
2022/05/07 13:41:13;;;;;;;;;;;;;;;;;;;;;
2022/05/07 13:44:23;;;;;;;15.27;4.55;;;;;;;19.28;47.65;102122.66;6382151;23;20043;-84
2022/05/07 13:47:19;;;;;;;12.75;3.67;;;;;;;19.12;48.10;102124.84;6321552;23;20033;-84
2022/05/07 13:49:51;;;;;;;12.70;4.00;;;;;;;18.97;49.15;102129.72;6345009;23;20026;-85
2022/05/07 13:52:23;;;;;;;22.15;5.05;;;;;;;18.62;50.52;102115.59;6344457;23;20144;-85
2022/05/07 13:55:01;;;;;;;25.40;5.43;;;;;;;18.71;50.92;102125.94;6343736;23;20036;-85
2022/05/07 13:57:49;;;;;;;19.63;6.30;;;;;;;18.58;52.04;102123.59;6344017;23;20018;-84
2022/05/07 14:00:21;;;;;;;11.25;4.28;;;;;;;18.55;52.64;102130.75;6345480;23;20136;-82
2022/05/07 14:02:52;;;;;;;13.70;5.18;;;;;;;18.24;53.83;102115.66;6345662;23;20226;-86
2022/05/07 14:05:27;;;;;;;9.77;4.87;;;;;;;18.22;53.79;102134.16;6345987;23;20050;-84
2022/05/07 14:16:15;;;;;;;;;;;;;;;;;;;;;
2022/05/07 16:53:11;;;;;;;14.98;12.75;;;;;;;25.70;44.33;102152.25;6255096;23;20040;-85
2022/05/07 17:09:54;;;;;;;16.00;13.63;;;;;;;23.74;45.46;102148.72;6375479;23;20387;-86
2022/05/07 17:13:29;;;;;;;;;;;;;;;;;;;;;
2022/05/07 17:20:24;;;;;;;15.35;13.75;;;;;;;23.69;46.45;102149.88;6258969;23;20126;-83
2022/05/07 17:23:45;;;;;;;17.38;14.45;;;;;;;22.38;49.41;102135.16;6256312;23;20090;-85
2022/05/07 17:26:36;;;;;;;17.63;13.50;;;;;;;22.57;49.33;102153.84;6197453;24;20098;-84
2022/05/07 17:33:15;;;;;;;15.00;13.38;;;;;;;23.38;47.54;102153.97;6171088;23;20013;-87
2022/05/07 17:36:14;;;;;;;16.45;12.98;;;;;;;23.27;47.37;102155.28;6147973;24;20010;-85
2022/05/07 17:39:51;;;;;;;;;;;;;;;;;;;;;
2022/05/07 17:43:19;;;;;;;16.05;12.63;;;;;;;22.00;48.99;102153.44;6149137;24;20033;-84
2022/05/07 17:46:53;;;;;;;15.63;12.23;;;;;;;21.52;49.81;102144.63;6185130;24;20012;-83
2022/05/07 17:49:34;;;;;;;15.80;12.65;;;;;;;21.00;51.38;102151.81;6119587;24;20185;-85
2022/05/07 17:52:51;;;;;;;;;;;;;;;;;;;;;
2022/05/07 17:55:39;;;;;;;;;;;;;;;;;;;;;
2022/05/07 18:01:47;;;;;;;19.00;11.40;;;;;;;19.47;54.74;102167.97;6332139;23;20018;-83
2022/05/07 18:04:23;;;;;;;13.05;11.50;;;;;;;19.20;56.13;102166.09;6331883;23;20054;-81
2022/05/07 18:07:00;;;;;;;13.43;11.45;;;;;;;19.04;55.48;102166.47;6330232;23;20018;-84
2022/05/07 18:09:52;;;;;;;;;;;;;;;;;;;;;
2022/05/07 18:12:35;;;;;;;12.35;9.23;;;;;;;19.10;54.26;102173.41;6394373;23;20020;-85
2022/05/07 18:15:16;;;;;;;;;;;;;;;19.63;52.52;102180.78;6389528;23;20022;-85
2022/05/07 18:18:04;;;;;;;10.30;9.07;;;;;;;19.66;53.44;102183.34;6365861;23;19913;-82
2022/05/07 18:20:39;;;;;;;12.43;8.27;;;;;;;19.73;52.49;102181.38;6476513;23;20726;-82
2022/05/07 18:23:14;;;;;;;14.20;8.20;;;;;;;20.12;52.20;102184.63;6505720;23;20015;-84
2022/05/07 18:26:04;;;;;;;;;;;;;;;;;;;;;
2022/05/07 19:05:52;;;;;;;8.77;7.43;;;;;;;16.77;61.73;102209.84;6126871;24;20021;-83
2022/05/07 19:09:28;;;;;;;11.48;7.88;;;;;;;16.70;61.60;102216.13;6123458;24;20012;-83
2022/05/07 20:18:44;;;;;;;14.90;11.88;;;;;;;15.12;73.03;102282.78;6205848;24;20391;-83
2022/05/07 21:13:16;;;;;;;14.95;10.23;;;;;;;14.91;76.43;102344.19;6395722;23;20046;-82
2022/05/07 21:23:31;;;;;;;14.43;10.30;;;;;;;14.80;76.95;102341.63;6229003;23;20020;-85
2022/05/07 21:30:34;;;;;;;12.15;10.18;;;;;;;14.55;77.78;102338.22;6084806;24;20015;-82
2022/05/07 21:48:50;;;;;;;10.10;9.05;;;;;;;14.06;78.40;102356.75;6503662;22;20027;-84
2022/05/07 21:51:38;;;;;;;;;;;;;;;14.12;77.01;102360.22;6503237;23;20004;-81
2022/05/07 21:54:10;;;;;;;12.30;7.68;;;;;;;13.95;77.23;102352.38;6502745;23;20364;-85
2022/05/07 21:56:43;;;;;;;7.78;6.68;;;;;;;14.10;76.32;102351.47;6502272;23;20012;-84
2022/05/07 21:59:19;;;;;;;;;;;;;;;14.07;75.40;102356.75;6504032;23;20008;-83
2022/05/07 22:01:51;;;;;;;10.30;6.72;;;;;;;13.79;76.61;102358.53;6502903;23;19957;-84
2022/05/07 22:04:23;;;;;;;14.77;7.17;;;;;;;13.74;76.20;102355.06;6502321;23;20060;-86
2022/05/07 22:06:54;;;;;;;9.47;5.70;;;;;;;13.74;76.20;102363.78;6523905;22;20476;-85
2022/05/07 22:09:26;;;;;;;9.33;5.93;;;;;;;13.72;75.96;102364.63;6499486;23;20000;-81
2022/05/07 22:12:00;;;;;;;6.70;5.90;;;;;;;13.75;75.49;102364.63;6499905;23;20394;-86
2022/05/07 22:14:34;;;;;;;8.93;5.85;;;;;;;13.60;75.81;102365.53;6501896;23;20000;-85
2022/05/07 22:17:05;;;;;;;7.55;5.78;;;;;;;13.61;75.33;102364.66;6501599;23;20007;-82
2022/05/07 22:19:37;;;;;;;10.33;6.00;;;;;;;13.60;75.17;102362.91;6502252;23;20456;-85
2022/05/07 22:22:08;;;;;;;7.97;5.40;;;;;;;13.61;74.82;102367.28;6500550;23;20008;-84
2022/05/07 22:24:39;;;;;;;6.50;4.80;;;;;;;13.56;75.00;102372.53;6500945;23;20008;-84
2022/05/07 22:27:11;;;;;;;7.77;4.70;;;;;;;13.57;74.54;102374.28;6503821;23;20015;-83
2022/05/07 22:29:44;;;;;;;7.33;5.27;;;;;;;13.50;74.48;102370.75;6505670;23;20056;-84
2022/05/07 22:32:15;;;;;;;5.50;4.63;;;;;;;13.57;74.39;102376.91;6499999;23;20513;-86
2022/05/07 22:34:47;;;;;;;9.20;6.13;;;;;;;13.50;74.47;102378.63;6500248;23;20012;-83
2022/05/07 22:37:18;;;;;;;6.73;4.37;;;;;;;13.44;74.31;102376.03;6499042;23;20257;-84
2022/05/07 22:39:50;;;;;;;9.47;4.57;;;;;;;13.39;74.40;102377.72;6500894;23;20012;-86
2022/05/07 22:42:21;;;;;;;5.47;4.20;;;;;;;13.35;73.76;102376.00;6500428;23;20004;-82
2022/05/07 22:44:52;;;;;;;6.77;4.50;;;;;;;13.43;73.46;102383.88;6501034;23;20004;-83
2022/05/07 22:47:40;;;;;;;6.13;4.50;;;;;;;13.43;72.72;102395.22;6500875;23;20012;-84
2022/05/07 22:50:12;;;;;;;5.97;3.47;;;;;;;13.27;72.72;102404.75;6531262;22;20088;-85
2022/05/07 22:52:44;;;;;;;9.20;3.97;;;;;;;13.30;72.20;102404.78;6514889;23;20032;-84
2022/05/07 22:55:16;;;;;;;8.40;3.53;;;;;;;13.27;71.88;102404.75;6513673;23;20068;-79
2022/05/07 22:57:48;;;;;;;5.60;3.50;;;;;;;13.22;71.23;102405.63;6504422;23;20011;-85
2022/05/07 23:00:20;;;;;;;6.45;3.78;;;;;;;13.20;71.13;102405.63;6503235;23;20060;-85
2022/05/07 23:02:52;;;;;;;5.23;3.47;;;;;;;13.07;71.31;102409.06;6503587;23;20058;-83
2022/05/07 23:05:23;;;;;;;7.38;3.80;;;;;;;12.95;70.94;102415.16;6505836;23;20015;-85
2022/05/07 23:07:55;;;;;;;7.40;3.73;;;;;;;12.97;70.84;102408.16;6504615;23;20000;-85
2022/05/07 23:10:26;;;;;;;6.40;3.60;;;;;;;12.91;70.31;102402.91;6502214;23;20086;-85
2022/05/07 23:13:04;;;;;;;6.83;3.53;;;;;;;12.84;71.05;102417.72;6499732;23;20003;-81
2022/05/07 23:15:35;;;;;;;8.32;3.63;;;;;;;12.76;71.22;102415.06;6500171;23;20023;-83
2022/05/07 23:18:08;;;;;;;7.73;4.30;;;;;;;12.84;71.47;102414.25;6499652;23;20031;-85
2022/05/07 23:20:40;;;;;;;7.50;4.47;;;;;;;12.83;71.64;102425.56;6499686;23;20031;-83
2022/05/07 23:23:11;;;;;;;8.27;4.93;;;;;;;12.74;71.31;102418.56;6499407;23;20004;-86
2022/05/07 23:25:43;;;;;;;11.23;4.67;;;;;;;12.82;71.65;102426.44;6522208;22;20071;-80
2022/05/07 23:28:15;;;;;;;9.88;5.25;;;;;;;12.82;71.54;102421.22;6499470;23;20065;-84
2022/05/07 23:30:46;;;;;;;6.93;4.27;;;;;;;12.85;71.86;102429.09;6498331;23;20015;-85
2022/05/07 23:33:18;;;;;;;11.83;4.60;;;;;;;12.84;71.89;102424.72;6499564;23;20075;-85
2022/05/07 23:35:49;;;;;;;9.97;4.80;;;;;;;12.82;71.67;102426.44;6499386;23;20000;-80
2022/05/07 23:38:21;;;;;;;9.90;4.30;;;;;;;12.87;72.07;102428.19;6499996;23;20015;-85
2022/05/07 23:40:53;;;;;;;9.20;4.97;;;;;;;12.91;72.03;102429.06;6522281;22;20023;-85
2022/05/07 23:43:25;;;;;;;10.37;4.70;;;;;;;12.81;72.11;102424.69;6499894;23;20000;-86
2022/05/07 23:45:57;;;;;;;7.85;4.45;;;;;;;12.87;72.20;102428.19;6499983;23;20008;-86
2022/05/07 23:48:31;;;;;;;10.02;5.28;;;;;;;12.80;72.67;102429.06;6499361;23;20487;-83
2022/05/07 23:51:05;;;;;;;13.15;5.20;;;;;;;12.72;72.91;102431.63;6498812;22;20011;-85
2022/05/07 23:53:37;;;;;;;9.98;5.20;;;;;;;12.80;73.01;102433.41;6499180;23;20036;-82
2022/05/07 23:56:08;;;;;;;9.90;5.30;;;;;;;12.69;73.21;102439.47;6498836;23;20009;-85
2022/05/07 23:58:39;;;;;;;7.60;4.97;;;;;;;12.78;73.14;102438.63;6500167;23;20004;-84
